Time;durP1;ratioP1;P1;durP2;ratioP2;P2;SDS_P1;SDS_P2;PMS_P1;PMS_P2;Temp;Humidity;BMP_temperature;BMP_pressure;BME280_temperature;BME280_humidity;BME280_pressure;Samples;Min_cycle;Max_cycle;Signal;HPM_P1;HPM_P2
2023/03/27 00:00:44;;;;;;;4.35;2.28;;;;;;;;;;5005523;28;20069;-61
2023/03/27 00:03:13;;;;;;;5.68;2.10;;;;;;;;;;5001939;28;20036;-61
2023/03/27 00:05:39;;;;;;;8.43;2.88;;;;;;;;;;5008229;28;20030;-61
2023/03/27 00:08:09;;;;;;;2.60;1.80;;;;;;;;;;5006912;28;20037;-62
2023/03/27 00:10:37;;;;;;;2.47;1.90;;;;;;;;;;5003651;28;20037;-61
2023/03/27 00:13:04;;;;;;;6.30;2.53;;;;;;;;;;4998933;28;20041;-61
2023/03/27 00:15:32;;;;;;;3.45;1.65;;;;;;;;;;5006748;28;20508;-61
2023/03/27 00:18:02;;;;;;;4.25;1.80;;;;;;;;;;5005705;28;20045;-61
2023/03/27 00:20:31;;;;;;;3.25;1.85;;;;;;;;;;5000434;28;20526;-60
2023/03/27 00:22:57;;;;;;;1.60;1.50;;;;;;;;;;5005013;28;20042;-61
2023/03/27 00:25:26;;;;;;;2.40;1.45;;;;;;;;;;5005463;28;20042;-61
2023/03/27 00:27:55;;;;;;;2.10;1.70;;;;;;;;;;5003717;28;20054;-61
2023/03/27 00:30:22;;;;;;;2.00;1.80;;;;;;;;;;5000666;28;20038;-61
2023/03/27 00:32:48;;;;;;;3.17;1.50;;;;;;;;;;5000787;28;20491;-61
2023/03/27 00:35:15;;;;;;;1.52;1.10;;;;;;;;;;5003798;28;20410;-61
2023/03/27 00:37:41;;;;;;;1.88;1.40;;;;;;;;;;5042123;28;20034;-60
2023/03/27 00:40:13;;;;;;;2.53;1.40;;;;;;;;;;5010516;28;20030;-61
2023/03/27 00:42:39;;;;;;;2.50;1.08;;;;;;;;;;4993202;28;20037;-61
2023/03/27 00:45:13;;;;;;;2.75;1.10;;;;;;;;;;5009170;28;20496;-60
2023/03/27 00:47:39;;;;;;;1.20;1.00;;;;;;;;;;5006609;28;20503;-60
2023/03/27 00:50:09;;;;;;;1.35;1.10;;;;;;;;;;4991746;28;20029;-61
2023/03/27 00:52:41;;;;;;;4.20;1.20;;;;;;;;;;5009301;28;20049;-61
2023/03/27 00:55:13;;;;;;;1.05;0.95;;;;;;;;;;5009754;28;20034;-60
2023/03/27 00:57:47;;;;;;;2.28;0.98;;;;;;;;;;5004675;28;20041;-61
2023/03/27 01:00:15;;;;;;;1.45;1.08;;;;;;;;;;5007589;28;20053;-61
2023/03/27 01:02:45;;;;;;;1.30;1.20;;;;;;;;;;4993077;28;20045;-59
2023/03/27 01:05:12;;;;;;;1.20;1.13;;;;;;;;;;4989098;28;20045;-62
2023/03/27 01:07:39;;;;;;;1.30;1.10;;;;;;;;;;5006446;28;20044;-61
2023/03/27 01:10:08;;;;;;;1.15;0.95;;;;;;;;;;5008761;28;20399;-61
2023/03/27 01:12:58;;;;;;;2.63;1.02;;;;;;;;;;5005103;28;20045;-61
2023/03/27 01:15:46;;;;;;;1.63;1.00;;;;;;;;;;5001984;28;20034;-61
2023/03/27 01:18:18;;;;;;;1.17;1.08;;;;;;;;;;5003804;28;20042;-61
2023/03/27 01:21:06;;;;;;;1.40;0.93;;;;;;;;;;5004003;28;20294;-62
2023/03/27 01:23:38;;;;;;;1.00;1.00;;;;;;;;;;5032990;28;20412;-62
2023/03/27 01:26:42;;;;;;;1.13;1.00;;;;;;;;;;5034558;28;20228;-60
2023/03/27 01:29:31;;;;;;;1.00;1.00;;;;;;;;;;5008621;28;20045;-61
2023/03/27 01:32:05;;;;;;;;;;;;;;;;;;5001591;28;20487;-62
2023/03/27 01:34:43;;;;;;;1.20;1.10;;;;;;;;;;5001986;28;20323;-61
2023/03/27 01:37:36;;;;;;;1.50;1.40;;;;;;;;;;5009194;28;20061;-60
2023/03/27 01:40:08;;;;;;;1.35;1.25;;;;;;;;;;5009649;28;20046;-63
2023/03/27 01:42:43;;;;;;;1.25;1.15;;;;;;;;;;5007292;28;20125;-60
2023/03/27 01:45:14;;;;;;;1.40;1.30;;;;;;;;;;5001072;28;20050;-61
2023/03/27 01:47:43;;;;;;;1.10;1.05;;;;;;;;;;5008254;28;20041;-61
2023/03/27 01:50:29;;;;;;;1.40;1.30;;;;;;;;;;5007638;28;20492;-60
2023/03/27 01:53:10;;;;;;;1.40;1.30;;;;;;;;;;5006385;28;20310;-62
2023/03/27 01:55:42;;;;;;;1.60;1.40;;;;;;;;;;5008687;28;20037;-61
2023/03/27 01:58:13;;;;;;;1.77;1.55;;;;;;;;;;4992727;28;20049;-60
2023/03/27 02:00:44;;;;;;;1.42;1.33;;;;;;;;;;5007804;28;20399;-61
2023/03/27 02:03:15;;;;;;;1.25;1.15;;;;;;;;;;5007903;28;20048;-61
2023/03/27 02:05:55;;;;;;;1.20;1.10;;;;;;;;;;5004599;28;20046;-60
2023/03/27 02:08:30;;;;;;;1.25;1.08;;;;;;;;;;4988227;28;20041;-61
2023/03/27 02:11:05;;;;;;;1.70;1.20;;;;;;;;;;5003612;28;20407;-61
2023/03/27 02:13:39;;;;;;;1.92;1.60;;;;;;;;;;5008934;28;20037;-61
2023/03/27 02:16:08;;;;;;;2.97;1.67;;;;;;;;;;5007374;28;20048;-62
2023/03/27 02:18:46;;;;;;;1.30;1.20;;;;;;;;;;5002741;28;20049;-61
2023/03/27 02:21:14;;;;;;;1.52;1.10;;;;;;;;;;4982366;28;20034;-62
2023/03/27 02:23:43;;;;;;;1.40;1.27;;;;;;;;;;5002345;28;20032;-62
2023/03/27 02:26:12;;;;;;;1.25;1.15;;;;;;;;;;4998366;28;20038;-62
2023/03/27 02:28:44;;;;;;;2.13;1.20;;;;;;;;;;4998363;28;20041;-61
2023/03/27 02:31:17;;;;;;;1.58;1.10;;;;;;;;;;4996544;28;20049;-61
2023/03/27 02:34:08;;;;;;;1.45;1.20;;;;;;;;;;5000689;28;20030;-63
2023/03/27 02:36:56;;;;;;;1.60;1.50;;;;;;;;;;5002389;28;20037;-59
2023/03/27 02:40:05;;;;;;;1.88;1.70;;;;;;;;;;5006171;28;20042;-60
2023/03/27 02:42:53;;;;;;;2.28;1.60;;;;;;;;;;5008103;28;20057;-61
2023/03/27 02:45:27;;;;;;;3.40;1.58;;;;;;;;;;5006870;28;20042;-61
2023/03/27 02:48:05;;;;;;;3.05;1.60;;;;;;;;;;5007949;28;20061;-60
2023/03/27 02:50:43;;;;;;;3.13;1.70;;;;;;;;;;5005977;28;20034;-61
2023/03/27 02:53:14;;;;;;;2.92;2.20;;;;;;;;;;5006264;28;20407;-61
2023/03/27 02:55:51;;;;;;;4.78;2.40;;;;;;;;;;5004412;28;20046;-62
2023/03/27 02:58:29;;;;;;;5.95;2.85;;;;;;;;;;5006844;28;20037;-61
2023/03/27 03:01:21;;;;;;;7.15;3.08;;;;;;;;;;5006584;28;20049;-60
2023/03/27 03:04:45;;;;;;;7.05;3.50;;;;;;;;;;5001778;28;20519;-62
2023/03/27 03:07:28;;;;;;;10.88;4.10;;;;;;;;;;5005691;28;20047;-61
2023/03/27 03:09:54;;;;;;;7.75;4.10;;;;;;;;;;5004958;28;20068;-61
2023/03/27 03:12:21;;;;;;;8.48;4.22;;;;;;;;;;5011274;28;20496;-61
2023/03/27 03:14:48;;;;;;;12.40;4.07;;;;;;;;;;5011194;28;20070;-61
2023/03/27 03:17:15;;;;;;;7.05;3.80;;;;;;;;;;5002585;28;20122;-63
2023/03/27 03:19:41;;;;;;;9.40;4.15;;;;;;;;;;5002263;28;20035;-60
2023/03/27 03:22:08;;;;;;;8.93;4.07;;;;;;;;;;5005606;28;20038;-60
2023/03/27 03:24:36;;;;;;;8.65;4.03;;;;;;;;;;5004491;28;20057;-61
2023/03/27 03:27:03;;;;;;;8.63;4.18;;;;;;;;;;5001188;28;20663;-60
2023/03/27 03:29:34;;;;;;;6.50;4.30;;;;;;;;;;4998782;28;20236;-60
2023/03/27 03:32:15;;;;;;;9.00;4.28;;;;;;;;;;5007845;28;20503;-60
2023/03/27 03:34:45;;;;;;;9.57;4.85;;;;;;;;;;5003179;28;20033;-60
2023/03/27 03:37:13;;;;;;;6.93;4.38;;;;;;;;;;5011139;28;20562;-60
2023/03/27 03:39:40;;;;;;;9.32;4.65;;;;;;;;;;5010345;28;20041;-61
2023/03/27 03:42:06;;;;;;;10.77;5.25;;;;;;;;;;5011553;28;20102;-62
2023/03/27 03:44:33;;;;;;;14.85;4.88;;;;;;;;;;5010044;28;20045;-60
2023/03/27 03:47:06;;;;;;;10.80;5.30;;;;;;;;;;5003554;28;20049;-60
2023/03/27 03:49:32;;;;;;;10.50;4.95;;;;;;;;;;5008693;28;20042;-62
2023/03/27 03:51:58;;;;;;;9.15;4.70;;;;;;;;;;5011003;28;20491;-60
2023/03/27 03:54:24;;;;;;;9.10;4.88;;;;;;;;;;5009686;28;20034;-60
2023/03/27 03:56:50;;;;;;;11.57;5.10;;;;;;;;;;4994988;28;20034;-60
2023/03/27 03:59:17;;;;;;;13.57;4.88;;;;;;;;;;5008397;28;20042;-61
2023/03/27 04:02:01;;;;;;;15.00;5.55;;;;;;;;;;5007317;28;20037;-60
2023/03/27 04:04:30;;;;;;;14.02;5.43;;;;;;;;;;5006901;28;20421;-60
2023/03/27 04:07:05;;;;;;;14.52;5.78;;;;;;;;;;5003510;28;20496;-60
2023/03/27 04:09:34;;;;;;;9.88;4.25;;;;;;;;;;5005694;28;20528;-58
2023/03/27 04:12:17;;;;;;;13.90;5.28;;;;;;;;;;5002778;28;20048;-60
2023/03/27 04:15:09;;;;;;;12.85;4.75;;;;;;;;;;4999618;28;20053;-61
2023/03/27 04:18:08;;;;;;;15.48;5.15;;;;;;;;;;4996840;28;20419;-59
2023/03/27 04:20:36;;;;;;;12.48;4.97;;;;;;;;;;5000349;28;20427;-61
2023/03/27 04:23:04;;;;;;;13.15;4.88;;;;;;;;;;4997651;28;20042;-61
2023/03/27 04:25:35;;;;;;;8.52;4.20;;;;;;;;;;5007277;28;20041;-60
2023/03/27 04:28:02;;;;;;;7.22;4.50;;;;;;;;;;5004520;28;20053;-61
2023/03/27 04:30:33;;;;;;;11.38;4.32;;;;;;;;;;4999088;28;20034;-60
2023/03/27 04:33:18;;;;;;;18.98;4.75;;;;;;;;;;5001051;28;20030;-61
2023/03/27 04:36:13;;;;;;;10.63;4.65;;;;;;;;;;5011738;28;20045;-61
2023/03/27 04:38:48;;;;;;;14.55;4.78;;;;;;;;;;4993208;28;20515;-62
2023/03/27 04:41:16;;;;;;;12.35;4.30;;;;;;;;;;5009764;28;20041;-61
2023/03/27 04:43:42;;;;;;;11.27;4.40;;;;;;;;;;5007609;28;20048;-61
2023/03/27 04:46:08;;;;;;;8.05;4.57;;;;;;;;;;5004786;28;20404;-60
2023/03/27 04:48:37;;;;;;;15.32;4.60;;;;;;;;;;5006632;28;20033;-60
2023/03/27 04:51:13;;;;;;;9.50;4.68;;;;;;;;;;5005618;28;20068;-60
2023/03/27 04:53:41;;;;;;;11.90;5.10;;;;;;;;;;5010137;28;20041;-61
2023/03/27 04:56:09;;;;;;;15.57;4.30;;;;;;;;;;5006767;28;20034;-60
2023/03/27 04:58:40;;;;;;;13.40;4.85;;;;;;;;;;5009253;28;20045;-60
2023/03/27 05:01:11;;;;;;;13.55;4.93;;;;;;;;;;5002591;28;20372;-61
2023/03/27 05:03:52;;;;;;;11.85;4.65;;;;;;;;;;5006005;28;20416;-61
2023/03/27 05:06:41;;;;;;;19.42;5.50;;;;;;;;;;5006760;28;20034;-61
2023/03/27 05:09:11;;;;;;;15.95;4.85;;;;;;;;;;5007014;28;20041;-58
2023/03/27 05:11:37;;;;;;;10.32;4.82;;;;;;;;;;5002316;28;20392;-61
2023/03/27 05:14:03;;;;;;;12.88;4.95;;;;;;;;;;5003894;28;20057;-60
2023/03/27 05:16:34;;;;;;;12.65;4.57;;;;;;;;;;5009276;28;20038;-60
2023/03/27 05:19:04;;;;;;;13.85;4.93;;;;;;;;;;5001866;28;20093;-61
2023/03/27 05:21:38;;;;;;;14.90;4.90;;;;;;;;;;5006181;28;20034;-60
2023/03/27 05:24:08;;;;;;;;;;;;;;;;;;5002205;28;20033;-60
2023/03/27 05:26:34;;;;;;;11.68;4.07;;;;;;;;;;5009642;28;20375;-61
2023/03/27 05:29:04;;;;;;;12.52;4.45;;;;;;;;;;4999302;28;20045;-60
2023/03/27 05:31:32;;;;;;;10.75;4.22;;;;;;;;;;4997871;28;20042;-60
2023/03/27 05:34:19;;;;;;;7.72;3.80;;;;;;;;;;5005436;28;20033;-61
2023/03/27 05:36:48;;;;;;;9.75;3.88;;;;;;;;;;5006737;28;20041;-61
2023/03/27 05:39:15;;;;;;;25.48;8.63;;;;;;;;;;5008631;28;20045;-60
2023/03/27 05:41:44;;;;;;;33.78;11.88;;;;;;;;;;5007663;28;20041;-61
2023/03/27 05:44:10;;;;;;;26.35;9.82;;;;;;;;;;5008623;28;20407;-61
2023/03/27 05:46:41;;;;;;;16.88;6.85;;;;;;;;;;5003936;28;20038;-62
2023/03/27 05:49:17;;;;;;;14.05;4.85;;;;;;;;;;5006341;28;20034;-61
2023/03/27 05:51:48;;;;;;;16.60;4.80;;;;;;;;;;5005994;28;20041;-61
2023/03/27 05:54:19;;;;;;;12.10;3.90;;;;;;;;;;5007962;28;20495;-60
2023/03/27 05:57:06;;;;;;;13.07;3.03;;;;;;;;;;4999310;28;20046;-61
2023/03/27 05:59:33;;;;;;;8.95;2.95;;;;;;;;;;5002750;28;20049;-61
2023/03/27 06:02:16;;;;;;;12.77;3.50;;;;;;;;;;5007720;28;20048;-61
2023/03/27 06:04:49;;;;;;;7.65;3.10;;;;;;;;;;5006869;28;20300;-60
2023/03/27 06:07:25;;;;;;;13.52;5.13;;;;;;;;;;5005227;28;20037;-62
2023/03/27 06:09:52;;;;;;;11.73;3.35;;;;;;;;;;5009112;28;20565;-60
2023/03/27 06:12:37;;;;;;;10.35;3.30;;;;;;;;;;5004428;28;20046;-61
2023/03/27 06:15:15;;;;;;;7.38;2.88;;;;;;;;;;5008559;28;20026;-62
2023/03/27 06:17:51;;;;;;;9.90;2.70;;;;;;;;;;5002016;28;20502;-63
2023/03/27 06:20:20;;;;;;;6.68;2.78;;;;;;;;;;4997864;28;20064;-60
2023/03/27 06:22:58;;;;;;;8.25;2.85;;;;;;;;;;5002032;28;20072;-61
2023/03/27 06:25:32;;;;;;;12.82;3.00;;;;;;;;;;5008461;28;20037;-61
2023/03/27 06:27:59;;;;;;;12.05;3.55;;;;;;;;;;4998893;28;20042;-60
2023/03/27 06:30:26;;;;;;;12.13;3.80;;;;;;;;;;4997840;28;20053;-62
2023/03/27 06:33:18;;;;;;;14.50;4.30;;;;;;;;;;5013180;28;20045;-61
2023/03/27 06:35:45;;;;;;;11.05;3.33;;;;;;;;;;5011455;28;20053;-60
2023/03/27 06:38:16;;;;;;;9.13;3.33;;;;;;;;;;5015496;28;20055;-60
2023/03/27 06:40:43;;;;;;;18.95;3.50;;;;;;;;;;5013272;28;20407;-60
2023/03/27 06:43:10;;;;;;;13.32;2.72;;;;;;;;;;5014891;28;20034;-61
2023/03/27 06:45:48;;;;;;;7.13;2.90;;;;;;;;;;5012650;28;20041;-61
2023/03/27 06:48:33;;;;;;;10.30;2.55;;;;;;;;;;5011737;28;20567;-60
2023/03/27 06:51:02;;;;;;;11.30;2.90;;;;;;;;;;5011882;28;20048;-61
2023/03/27 06:53:28;;;;;;;11.10;3.17;;;;;;;;;;5011487;28;20049;-62
2023/03/27 06:55:56;;;;;;;12.23;4.25;;;;;;;;;;5010391;28;20038;-61
2023/03/27 06:58:23;;;;;;;8.95;3.88;;;;;;;;;;5011541;28;20046;-61
2023/03/27 07:00:50;;;;;;;10.35;3.17;;;;;;;;;;5009999;28;20054;-62
2023/03/27 07:03:18;;;;;;;10.15;3.22;;;;;;;;;;5008205;28;20049;-60
2023/03/27 07:06:19;;;;;;;11.70;3.25;;;;;;;;;;5005443;28;20042;-60
2023/03/27 07:08:52;;;;;;;8.05;3.30;;;;;;;;;;5014287;28;20042;-60
2023/03/27 07:11:19;;;;;;;19.05;6.88;;;;;;;;;;5011517;28;20042;-60
2023/03/27 07:13:57;;;;;;;15.38;5.15;;;;;;;;;;5015436;28;20038;-60
2023/03/27 07:16:26;;;;;;;8.63;2.80;;;;;;;;;;5014452;28;20395;-59
2023/03/27 07:18:52;;;;;;;11.00;2.83;;;;;;;;;;5044314;28;20045;-59
2023/03/27 07:21:19;;;;;;;8.50;3.53;;;;;;;;;;5003714;28;20033;-59
2023/03/27 07:23:46;;;;;;;11.68;4.25;;;;;;;;;;5005231;28;20042;-60
2023/03/27 07:26:15;;;;;;;10.73;3.17;;;;;;;;;;5006994;28;20041;-59
2023/03/27 07:29:02;;;;;;;14.52;4.40;;;;;;;;;;5006696;28;20403;-61
2023/03/27 07:31:29;;;;;;;8.15;3.92;;;;;;;;;;5013467;28;20510;-62
2023/03/27 07:33:56;;;;;;;11.48;3.65;;;;;;;;;;5014150;28;20042;-61
2023/03/27 07:36:43;;;;;;;7.95;2.85;;;;;;;;;;5012166;28;20033;-61
2023/03/27 07:39:11;;;;;;;9.60;3.78;;;;;;;;;;5014118;28;20036;-61
2023/03/27 07:41:38;;;;;;;5.13;3.03;;;;;;;;;;5013859;28;20046;-61
2023/03/27 07:44:21;;;;;;;12.85;3.03;;;;;;;;;;5012566;28;20030;-61
2023/03/27 07:47:04;;;;;;;8.07;3.50;;;;;;;;;;4992678;28;20037;-61
2023/03/27 07:49:30;;;;;;;8.25;3.03;;;;;;;;;;5010872;28;20029;-61
2023/03/27 07:51:57;;;;;;;5.30;3.25;;;;;;;;;;5012373;28;20037;-61
2023/03/27 07:54:23;;;;;;;7.32;3.15;;;;;;;;;;5007674;28;20033;-59
2023/03/27 07:56:52;;;;;;;7.70;2.65;;;;;;;;;;5010120;28;20430;-59
2023/03/27 07:59:31;;;;;;;8.02;3.30;;;;;;;;;;5008384;28;20098;-60
2023/03/27 08:02:04;;;;;;;10.10;3.28;;;;;;;;;;5006238;28;20038;-60
2023/03/27 08:04:35;;;;;;;5.57;2.63;;;;;;;;;;5002833;28;20041;-60
2023/03/27 08:07:05;;;;;;;7.15;2.72;;;;;;;;;;4998320;28;20482;-60
2023/03/27 08:09:31;;;;;;;9.68;3.25;;;;;;;;;;5010361;28;20046;-59
2023/03/27 08:11:58;;;;;;;11.90;4.25;;;;;;;;;;5042409;28;20038;-59
2023/03/27 08:14:25;;;;;;;11.00;4.18;;;;;;;;;;5005239;28;20037;-59
2023/03/27 08:16:54;;;;;;;7.95;3.10;;;;;;;;;;5004089;28;20054;-59
2023/03/27 08:19:25;;;;;;;10.30;3.42;;;;;;;;;;5003367;28;20491;-60
2023/03/27 08:21:57;;;;;;;9.93;2.75;;;;;;;;;;5000838;28;20054;-60
2023/03/27 08:24:23;;;;;;;11.45;4.15;;;;;;;;;;4998863;28;20046;-59
2023/03/27 08:27:11;;;;;;;10.13;3.10;;;;;;;;;;4999895;28;20053;-60
2023/03/27 08:29:42;;;;;;;12.27;3.33;;;;;;;;;;4993919;28;20523;-61
2023/03/27 08:32:09;;;;;;;11.43;3.17;;;;;;;;;;5010229;28;20045;-60
2023/03/27 08:34:37;;;;;;;17.70;2.90;;;;;;;;;;5009772;28;20038;-60
2023/03/27 08:37:03;;;;;;;11.57;3.15;;;;;;;;;;5010595;28;20038;-60
2023/03/27 08:39:38;;;;;;;12.15;3.17;;;;;;;;;;5006496;28;20045;-61
2023/03/27 08:42:12;;;;;;;12.30;3.65;;;;;;;;;;5007564;28;20038;-62
2023/03/27 08:44:39;;;;;;;11.35;3.45;;;;;;;;;;5010105;28;20045;-61
2023/03/27 08:47:21;;;;;;;13.35;3.90;;;;;;;;;;5007627;28;20409;-62
2023/03/27 08:50:02;;;;;;;10.45;2.92;;;;;;;;;;5006790;28;20048;-60
2023/03/27 08:52:49;;;;;;;10.07;3.05;;;;;;;;;;5006840;28;20495;-60
2023/03/27 08:55:42;;;;;;;9.63;2.85;;;;;;;;;;5036892;28;20026;-60
2023/03/27 08:58:29;;;;;;;8.32;2.42;;;;;;;;;;5002808;28;20037;-60
2023/03/27 09:01:16;;;;;;;6.13;2.92;;;;;;;;;;5007193;28;20048;-61
2023/03/27 09:04:04;;;;;;;9.38;2.72;;;;;;;;;;5007534;28;20038;-60
2023/03/27 09:06:48;;;;;;;7.85;2.63;;;;;;;;;;4994184;28;20094;-61
2023/03/27 09:09:45;;;;;;;9.90;2.55;;;;;;;;;;5032316;28;20065;-59
2023/03/27 09:12:47;;;;;;;7.05;2.83;;;;;;;;;;5003779;28;20074;-60
2023/03/27 09:15:21;;;;;;;11.02;3.05;;;;;;;;;;4991813;28;20508;-60
2023/03/27 09:17:55;;;;;;;9.02;2.47;;;;;;;;;;5001063;28;20035;-60
2023/03/27 09:20:24;;;;;;;5.38;2.53;;;;;;;;;;5001068;28;20038;-59
2023/03/27 09:22:57;;;;;;;8.15;2.80;;;;;;;;;;5005947;28;20041;-60
2023/03/27 09:25:40;;;;;;;12.52;3.03;;;;;;;;;;4997928;28;20058;-59
2023/03/27 09:28:20;;;;;;;16.08;5.43;;;;;;;;;;5001599;28;20044;-60
2023/03/27 09:30:56;;;;;;;15.52;4.75;;;;;;;;;;5007177;28;20054;-60
2023/03/27 09:33:27;;;;;;;7.93;2.80;;;;;;;;;;4994099;28;20046;-60
2023/03/27 09:35:56;;;;;;;6.53;2.28;;;;;;;;;;5007931;28;20053;-61
2023/03/27 09:38:43;;;;;;;14.00;3.40;;;;;;;;;;5008274;28;20176;-61
2023/03/27 09:41:27;;;;;;;10.95;3.40;;;;;;;;;;5006873;28;20052;-59
2023/03/27 09:44:09;;;;;;;7.90;2.80;;;;;;;;;;5008521;28;20037;-60
2023/03/27 09:46:42;;;;;;;7.88;2.42;;;;;;;;;;5021391;28;20034;-60
2023/03/27 09:49:18;;;;;;;8.52;2.55;;;;;;;;;;5005866;28;20113;-60
2023/03/27 09:51:50;;;;;;;19.45;5.35;;;;;;;;;;4992113;28;20041;-60
2023/03/27 09:54:50;;;;;;;16.67;4.00;;;;;;;;;;5005147;28;20511;-60
2023/03/27 09:57:17;;;;;;;6.70;3.15;;;;;;;;;;5002919;28;20510;-60
2023/03/27 10:00:09;;;;;;;8.02;2.70;;;;;;;;;;5008478;28;20109;-61
2023/03/27 10:02:40;;;;;;;8.95;2.78;;;;;;;;;;5001191;28;20034;-59
2023/03/27 10:05:18;;;;;;;11.45;2.80;;;;;;;;;;5008437;28;20041;-61
2023/03/27 10:07:50;;;;;;;10.15;3.47;;;;;;;;;;5002818;28;20053;-62
2023/03/27 10:10:18;;;;;;;4.90;2.78;;;;;;;;;;5006016;28;20058;-60
2023/03/27 10:13:15;;;;;;;4.00;2.08;;;;;;;;;;4998085;28;20049;-60
2023/03/27 10:15:46;;;;;;;6.53;2.42;;;;;;;;;;5007976;28;20049;-60
2023/03/27 10:18:32;;;;;;;7.72;3.30;;;;;;;;;;4999044;28;20050;-59
2023/03/27 10:21:09;;;;;;;18.05;6.20;;;;;;;;;;5007488;28;20045;-60
2023/03/27 10:23:40;;;;;;;;;;;;;;;;;;5009263;28;20042;-60
2023/03/27 10:26:12;;;;;;;13.13;3.63;;;;;;;;;;5019836;28;19929;-60
2023/03/27 10:28:50;;;;;;;8.93;2.90;;;;;;;;;;5006190;28;20396;-60
2023/03/27 10:31:33;;;;;;;10.65;3.55;;;;;;;;;;5008322;28;20056;-60
2023/03/27 10:34:28;;;;;;;11.43;2.78;;;;;;;;;;5008383;28;20057;-61
2023/03/27 10:37:27;;;;;;;12.00;5.03;;;;;;;;;;5004167;28;20038;-59
2023/03/27 10:40:08;;;;;;;8.88;2.42;;;;;;;;;;5016702;28;20037;-62
2023/03/27 10:42:38;;;;;;;13.35;3.83;;;;;;;;;;5008207;28;20510;-59
2023/03/27 10:45:06;;;;;;;11.50;3.90;;;;;;;;;;5005655;28;20046;-60
2023/03/27 10:47:33;;;;;;;12.43;4.53;;;;;;;;;;5003537;28;20041;-60
2023/03/27 10:50:06;;;;;;;8.50;2.67;;;;;;;;;;5004705;28;20046;-61
2023/03/27 10:52:42;;;;;;;15.40;2.95;;;;;;;;;;5007703;28;20046;-61
2023/03/27 10:55:50;;;;;;;9.57;2.75;;;;;;;;;;5002783;28;20411;-61
2023/03/27 10:58:31;;;;;;;12.45;3.88;;;;;;;;;;5002622;28;20486;-60
2023/03/27 11:01:07;;;;;;;11.55;4.60;;;;;;;;;;5005641;28;20041;-61
2023/03/27 11:03:54;;;;;;;10.85;2.60;;;;;;;;;;5004755;28;20033;-61
2023/03/27 11:06:30;;;;;;;13.05;3.10;;;;;;;;;;5018934;28;20038;-61
2023/03/27 11:09:04;;;;;;;12.93;2.65;;;;;;;;;;5007439;28;20093;-61
2023/03/27 11:11:35;;;;;;;5.63;2.30;;;;;;;;;;5002600;28;20065;-60
2023/03/27 11:14:09;;;;;;;8.98;2.28;;;;;;;;;;5000605;28;20513;-61
2023/03/27 11:16:42;;;;;;;10.20;2.55;;;;;;;;;;4991386;28;20038;-61
2023/03/27 11:19:36;;;;;;;12.10;3.45;;;;;;;;;;5002190;28;20033;-61
2023/03/27 11:22:27;;;;;;;7.03;2.63;;;;;;;;;;5001371;28;20046;-60
2023/03/27 11:25:20;;;;;;;9.18;3.28;;;;;;;;;;5001654;28;20050;-60
2023/03/27 11:27:57;;;;;;;14.43;3.78;;;;;;;;;;5008831;28;20038;-60
2023/03/27 11:30:32;;;;;;;4.47;2.33;;;;;;;;;;4994383;28;20471;-61
2023/03/27 11:32:58;;;;;;;9.07;2.60;;;;;;;;;;5010370;28;20038;-60
2023/03/27 11:35:32;;;;;;;9.02;2.53;;;;;;;;;;5010087;28;20057;-61
2023/03/27 11:38:37;;;;;;;16.60;5.45;;;;;;;;;;5011680;28;20057;-61
2023/03/27 11:41:06;;;;;;;6.90;2.67;;;;;;;;;;5019551;28;20042;-62
2023/03/27 11:43:37;;;;;;;9.40;2.17;;;;;;;;;;5011901;28;20045;-61
2023/03/27 11:46:29;;;;;;;5.70;2.47;;;;;;;;;;5008018;28;20042;-61
2023/03/27 11:49:19;;;;;;;7.25;3.15;;;;;;;;;;5008114;28;20045;-61
2023/03/27 11:51:56;;;;;;;;;;;;;;;;;;5008229;28;20411;-61
2023/03/27 11:54:39;;;;;;;7.97;2.97;;;;;;;;;;5025232;28;19921;-62
2023/03/27 11:57:29;;;;;;;9.45;3.03;;;;;;;;;;4994974;28;20045;-61
2023/03/27 12:00:28;;;;;;;9.07;3.22;;;;;;;;;;4990171;28;20053;-61
2023/03/27 12:03:29;;;;;;;8.57;2.10;;;;;;;;;;5005776;28;20404;-60
2023/03/27 12:05:58;;;;;;;4.43;2.08;;;;;;;;;;5005166;28;20038;-61
2023/03/27 12:09:12;;;;;;;12.65;2.47;;;;;;;;;;5006805;28;20487;-60
2023/03/27 12:12:29;;;;;;;17.67;7.57;;;;;;;;;;5004283;28;20045;-61
2023/03/27 12:15:07;;;;;;;18.92;6.88;;;;;;;;;;5010092;28;20049;-61
2023/03/27 12:17:52;;;;;;;18.50;6.53;;;;;;;;;;5001616;28;20046;-60
2023/03/27 12:20:38;;;;;;;12.48;4.22;;;;;;;;;;4999424;28;20053;-61
2023/03/27 12:23:29;;;;;;;9.63;3.40;;;;;;;;;;5006011;28;20042;-61
2023/03/27 12:26:46;;;;;;;8.00;3.40;;;;;;;;;;5010320;28;20060;-61
2023/03/27 12:30:02;;;;;;;8.75;2.78;;;;;;;;;;5041915;28;20046;-61
2023/03/27 12:32:47;;;;;;;6.85;2.55;;;;;;;;;;5009802;28;20391;-62
2023/03/27 12:35:19;;;;;;;4.05;2.15;;;;;;;;;;5010462;28;20053;-61
2023/03/27 12:37:55;;;;;;;6.10;2.65;;;;;;;;;;5008897;28;20064;-61
2023/03/27 12:40:38;;;;;;;5.15;2.17;;;;;;;;;;5007942;28;20034;-61
2023/03/27 12:43:17;;;;;;;9.45;2.20;;;;;;;;;;5007521;28;20053;-60
2023/03/27 12:46:06;;;;;;;3.42;1.90;;;;;;;;;;5007088;28;20400;-61
2023/03/27 12:48:44;;;;;;;9.95;3.15;;;;;;;;;;4991287;28;20060;-60
2023/03/27 12:51:15;;;;;;;7.18;3.10;;;;;;;;;;5006692;28;20049;-61
2023/03/27 12:53:47;;;;;;;9.43;3.38;;;;;;;;;;5007988;28;20030;-60
2023/03/27 12:56:15;;;;;;;10.60;3.00;;;;;;;;;;5010148;28;20510;-61
2023/03/27 12:58:44;;;;;;;3.67;2.40;;;;;;;;;;5005775;28;20045;-61
2023/03/27 13:01:43;;;;;;;6.47;2.40;;;;;;;;;;5008501;28;20049;-60
2023/03/27 13:04:18;;;;;;;4.22;1.90;;;;;;;;;;5009812;28;20034;-61
2023/03/27 13:07:04;;;;;;;6.03;2.28;;;;;;;;;;5009345;28;20034;-59
2023/03/27 13:10:06;;;;;;;8.38;2.83;;;;;;;;;;5004156;28;20532;-61
2023/03/27 13:13:17;;;;;;;7.30;2.60;;;;;;;;;;5007883;28;20046;-61
2023/03/27 13:16:21;;;;;;;4.97;1.87;;;;;;;;;;5017633;28;20037;-61
2023/03/27 13:19:04;;;;;;;5.50;2.50;;;;;;;;;;5027671;28;20675;-61
2023/03/27 13:22:11;;;;;;;3.28;1.65;;;;;;;;;;5002192;28;20041;-61
2023/03/27 13:25:21;;;;;;;4.57;1.50;;;;;;;;;;5008515;28;20627;-60
2023/03/27 13:28:19;;;;;;;4.55;2.00;;;;;;;;;;5019608;28;20049;-61
2023/03/27 13:31:06;;;;;;;4.22;1.60;;;;;;;;;;4997157;28;20041;-61
2023/03/27 13:34:26;;;;;;;5.45;1.92;;;;;;;;;;5008294;28;20042;-61
2023/03/27 13:37:24;;;;;;;5.82;1.85;;;;;;;;;;4990895;28;20051;-60
2023/03/27 13:40:19;;;;;;;5.20;1.60;;;;;;;;;;5005679;28;20050;-60
2023/03/27 13:42:47;;;;;;;5.13;1.45;;;;;;;;;;5005989;28;20076;-61
2023/03/27 13:45:37;;;;;;;5.15;1.42;;;;;;;;;;5008513;28;20057;-60
2023/03/27 13:48:44;;;;;;;4.03;1.67;;;;;;;;;;5013601;28;20053;-60
2023/03/27 13:51:45;;;;;;;3.88;1.73;;;;;;;;;;5001984;28;20431;-60
2023/03/27 13:54:14;;;;;;;7.00;1.58;;;;;;;;;;5039536;28;20030;-61
2023/03/27 13:57:14;;;;;;;3.28;1.58;;;;;;;;;;5002310;28;20030;-61
2023/03/27 14:00:16;;;;;;;4.50;2.03;;;;;;;;;;5005115;28;20229;-61
2023/03/27 14:03:09;;;;;;;2.60;1.40;;;;;;;;;;5006534;28;20488;-61
2023/03/27 14:05:56;;;;;;;4.72;1.98;;;;;;;;;;5008838;28;20050;-59
2023/03/27 14:08:46;;;;;;;5.40;1.50;;;;;;;;;;5004944;28;20046;-61
2023/03/27 14:11:50;;;;;;;;;;;;;;;;;;5009291;28;20034;-61
2023/03/27 14:14:51;;;;;;;3.17;1.40;;;;;;;;;;4999821;28;20332;-61
2023/03/27 14:17:39;;;;;;;3.47;1.48;;;;;;;;;;4997564;28;20407;-61
2023/03/27 14:20:40;;;;;;;6.05;2.00;;;;;;;;;;4991942;28;20048;-60
2023/03/27 14:23:46;;;;;;;5.93;2.80;;;;;;;;;;4999448;28;20042;-60
2023/03/27 14:26:28;;;;;;;8.23;2.55;;;;;;;;;;5003414;28;20079;-60
2023/03/27 14:28:59;;;;;;;6.80;2.53;;;;;;;;;;4992972;28;20389;-61
2023/03/27 14:31:42;;;;;;;6.50;2.50;;;;;;;;;;4990564;28;20049;-60
2023/03/27 14:34:33;;;;;;;5.30;2.10;;;;;;;;;;4994998;28;20033;-61
2023/03/27 14:37:37;;;;;;;5.78;2.38;;;;;;;;;;5002544;28;20053;-61
2023/03/27 14:40:28;;;;;;;7.40;2.47;;;;;;;;;;5005806;28;20030;-61
2023/03/27 14:42:59;;;;;;;5.55;2.33;;;;;;;;;;5006001;28;20411;-61
2023/03/27 14:45:29;;;;;;;;;;;;;;;;;;5021546;28;20057;-61
2023/03/27 14:48:13;;;;;;;6.80;2.90;;;;;;;;;;5008249;28;19936;-61
2023/03/27 14:50:47;;;;;;;8.23;2.90;;;;;;;;;;5004014;28;20055;-61
2023/03/27 14:53:24;;;;;;;6.75;2.38;;;;;;;;;;5006405;28;20038;-61
2023/03/27 14:56:35;;;;;;;3.05;2.50;;;;;;;;;;5010906;28;20483;-61
2023/03/27 14:59:21;;;;;;;3.67;2.55;;;;;;;;;;5010332;28;20041;-61
2023/03/27 15:01:55;;;;;;;7.95;3.13;;;;;;;;;;5011775;28;20480;-62
2023/03/27 15:04:23;;;;;;;10.68;4.40;;;;;;;;;;5006504;28;20046;-62
2023/03/27 15:06:54;;;;;;;9.38;4.10;;;;;;;;;;5011835;28;20085;-61
2023/03/27 15:09:57;;;;;;;7.75;3.35;;;;;;;;;;5037576;28;20038;-61
2023/03/27 15:12:46;;;;;;;9.88;4.30;;;;;;;;;;5012265;28;20048;-62
2023/03/27 15:15:41;;;;;;;9.82;5.05;;;;;;;;;;5005450;28;20428;-61
2023/03/27 15:18:17;;;;;;;12.45;7.32;;;;;;;;;;5027699;28;20530;-61
2023/03/27 15:20:46;;;;;;;19.48;13.68;;;;;;;;;;4993946;28;20042;-61
2023/03/27 15:23:30;;;;;;;12.98;6.38;;;;;;;;;;5006897;28;20080;-61
2023/03/27 15:26:02;;;;;;;23.05;7.78;;;;;;;;;;5011549;28;20049;-60
2023/03/27 15:28:54;;;;;;;15.57;6.07;;;;;;;;;;5012797;28;20046;-61
2023/03/27 15:31:24;;;;;;;9.40;4.68;;;;;;;;;;5007479;28;20046;-63
2023/03/27 15:34:02;;;;;;;7.93;4.13;;;;;;;;;;5009696;28;20242;-62
2023/03/27 15:36:33;;;;;;;9.07;3.85;;;;;;;;;;5011534;28;20029;-60
2023/03/27 15:39:01;;;;;;;8.85;3.60;;;;;;;;;;5011147;28;20037;-62
2023/03/27 15:41:40;;;;;;;5.20;3.05;;;;;;;;;;5009787;28;20511;-59
2023/03/27 15:44:15;;;;;;;16.10;4.53;;;;;;;;;;5012104;28;20045;-61